sensor_id;sensor_type;location;lat;lon;timestamp;temperature;humidity
19974;DHT22;10148;47.694;9.442;2023-04-01T00:00:49;8.50;99.90
19974;DHT22;10148;47.694;9.442;2023-04-01T00:03:16;8.50;99.90
19974;DHT22;10148;47.694;9.442;2023-04-01T00:05:42;8.40;99.90
19974;DHT22;10148;47.694;9.442;2023-04-01T00:08:07;8.40;99.90
19974;DHT22;10148;47.694;9.442;2023-04-01T00:10:33;8.30;99.90
19974;DHT22;10148;47.694;9.442;2023-04-01T00:12:58;8.30;99.90
19974;DHT22;10148;47.694;9.442;2023-04-01T00:15:24;8.30;99.90
19974;DHT22;10148;47.694;9.442;2023-04-01T00:17:50;8.20;99.90
19974;DHT22;10148;47.694;9.442;2023-04-01T00:20:15;8.20;99.90
19974;DHT22;10148;47.694;9.442;2023-04-01T00:22:41;8.20;99.90
19974;DHT22;10148;47.694;9.442;2023-04-01T00:25:07;8.20;99.90
19974;DHT22;10148;47.694;9.442;2023-04-01T00:27:33;8.20;99.90
19974;DHT22;10148;47.694;9.442;2023-04-01T00:29:58;8.20;99.90
19974;DHT22;10148;47.694;9.442;2023-04-01T00:32:24;8.20;99.90
19974;DHT22;10148;47.694;9.442;2023-04-01T00:34:51;8.20;99.90
19974;DHT22;10148;47.694;9.442;2023-04-01T00:37:17;8.20;99.90
19974;DHT22;10148;47.694;9.442;2023-04-01T00:39:43;8.20;99.90
19974;DHT22;10148;47.694;9.442;2023-04-01T00:42:10;8.20;99.90
19974;DHT22;10148;47.694;9.442;2023-04-01T00:44:41;8.10;99.90
19974;DHT22;10148;47.694;9.442;2023-04-01T00:47:06;8.00;99.90
19974;DHT22;10148;47.694;9.442;2023-04-01T00:49:41;7.90;99.90
19974;DHT22;10148;47.694;9.442;2023-04-01T00:52:11;7.80;99.90
19974;DHT22;10148;47.694;9.442;2023-04-01T00:54:38;7.60;99.90
19974;DHT22;10148;47.694;9.442;2023-04-01T00:57:11;7.50;99.90
19974;DHT22;10148;47.694;9.442;2023-04-01T00:59:45;7.50;99.90
19974;DHT22;10148;47.694;9.442;2023-04-01T01:02:14;7.40;99.90
19974;DHT22;10148;47.694;9.442;2023-04-01T01:04:40;7.30;99.90
19974;DHT22;10148;47.694;9.442;2023-04-01T01:07:16;7.20;99.90
19974;DHT22;10148;47.694;9.442;2023-04-01T01:12:45;7.10;99.90
19974;DHT22;10148;47.694;9.442;2023-04-01T01:34:40;6.70;99.90
19974;DHT22;10148;47.694;9.442;2023-04-01T01:37:14;6.70;99.90
19974;DHT22;10148;47.694;9.442;2023-04-01T01:39:41;6.70;99.90
19974;DHT22;10148;47.694;9.442;2023-04-01T01:42:10;6.70;99.90
19974;DHT22;10148;47.694;9.442;2023-04-01T01:44:37;6.60;99.90
19974;DHT22;10148;47.694;9.442;2023-04-01T01:47:03;6.60;99.90
19974;DHT22;10148;47.694;9.442;2023-04-01T01:49:32;6.60;99.90
19974;DHT22;10148;47.694;9.442;2023-04-01T01:51:58;6.60;99.90
19974;DHT22;10148;47.694;9.442;2023-04-01T01:54:23;6.60;99.90
19974;DHT22;10148;47.694;9.442;2023-04-01T01:56:51;6.60;99.90
19974;DHT22;10148;47.694;9.442;2023-04-01T01:59:21;6.60;99.90
19974;DHT22;10148;47.694;9.442;2023-04-01T02:01:50;6.60;99.90
19974;DHT22;10148;47.694;9.442;2023-04-01T02:04:17;6.60;99.90
19974;DHT22;10148;47.694;9.442;2023-04-01T02:06:58;6.70;99.90
19974;DHT22;10148;47.694;9.442;2023-04-01T02:09:26;6.70;99.90
19974;DHT22;10148;47.694;9.442;2023-04-01T02:11:57;6.60;99.90
19974;DHT22;10148;47.694;9.442;2023-04-01T02:14:29;6.70;99.90
19974;DHT22;10148;47.694;9.442;2023-04-01T02:17:03;6.70;99.90
19974;DHT22;10148;47.694;9.442;2023-04-01T02:19:40;6.70;99.90
19974;DHT22;10148;47.694;9.442;2023-04-01T02:22:11;6.70;99.90
19974;DHT22;10148;47.694;9.442;2023-04-01T02:24:40;6.80;99.90
19974;DHT22;10148;47.694;9.442;2023-04-01T02:27:06;6.80;99.90
19974;DHT22;10148;47.694;9.442;2023-04-01T02:29:32;6.90;99.90
19974;DHT22;10148;47.694;9.442;2023-04-01T02:31:58;7.00;99.90
19974;DHT22;10148;47.694;9.442;2023-04-01T02:34:24;7.00;99.90
19974;DHT22;10148;47.694;9.442;2023-04-01T02:36:51;7.10;99.90
19974;DHT22;10148;47.694;9.442;2023-04-01T02:39:17;7.10;99.90
19974;DHT22;10148;47.694;9.442;2023-04-01T02:41:44;7.20;99.90
19974;DHT22;10148;47.694;9.442;2023-04-01T02:44:11;7.30;99.90
19974;DHT22;10148;47.694;9.442;2023-04-01T02:46:37;7.30;99.90
19974;DHT22;10148;47.694;9.442;2023-04-01T02:49:03;7.30;99.90
19974;DHT22;10148;47.694;9.442;2023-04-01T02:51:29;7.40;99.90
19974;DHT22;10148;47.694;9.442;2023-04-01T02:53:54;7.40;99.90
19974;DHT22;10148;47.694;9.442;2023-04-01T02:56:20;7.50;99.90
19974;DHT22;10148;47.694;9.442;2023-04-01T02:58:46;7.50;99.90
19974;DHT22;10148;47.694;9.442;2023-04-01T03:01:12;7.50;99.90
19974;DHT22;10148;47.694;9.442;2023-04-01T03:03:38;7.50;99.90
19974;DHT22;10148;47.694;9.442;2023-04-01T03:06:12;7.50;99.90
19974;DHT22;10148;47.694;9.442;2023-04-01T03:08:39;7.50;99.90
19974;DHT22;10148;47.694;9.442;2023-04-01T03:11:04;7.50;99.90
19974;DHT22;10148;47.694;9.442;2023-04-01T03:13:30;7.50;99.90
19974;DHT22;10148;47.694;9.442;2023-04-01T03:15:56;7.50;99.90
19974;DHT22;10148;47.694;9.442;2023-04-01T03:18:21;7.50;99.90
19974;DHT22;10148;47.694;9.442;2023-04-01T03:20:47;7.50;99.90
19974;DHT22;10148;47.694;9.442;2023-04-01T03:23:13;7.50;99.90
19974;DHT22;10148;47.694;9.442;2023-04-01T03:25:39;7.50;99.90
19974;DHT22;10148;47.694;9.442;2023-04-01T03:28:05;7.50;99.90
19974;DHT22;10148;47.694;9.442;2023-04-01T03:30:31;7.60;99.90
19974;DHT22;10148;47.694;9.442;2023-04-01T03:32:58;7.60;99.90
19974;DHT22;10148;47.694;9.442;2023-04-01T03:35:24;7.60;99.90
19974;DHT22;10148;47.694;9.442;2023-04-01T03:37:51;7.60;99.90
19974;DHT22;10148;47.694;9.442;2023-04-01T03:40:17;7.60;99.90
19974;DHT22;10148;47.694;9.442;2023-04-01T03:42:42;7.60;99.90
19974;DHT22;10148;47.694;9.442;2023-04-01T03:45:08;7.60;99.90
19974;DHT22;10148;47.694;9.442;2023-04-01T03:47:34;7.50;99.90
19974;DHT22;10148;47.694;9.442;2023-04-01T03:50:00;7.50;99.90
19974;DHT22;10148;47.694;9.442;2023-04-01T03:52:26;7.60;99.90
19974;DHT22;10148;47.694;9.442;2023-04-01T03:54:52;7.60;99.90
19974;DHT22;10148;47.694;9.442;2023-04-01T03:57:17;7.60;99.90
19974;DHT22;10148;47.694;9.442;2023-04-01T03:59:43;7.60;99.90
19974;DHT22;10148;47.694;9.442;2023-04-01T04:02:08;7.60;99.90
19974;DHT22;10148;47.694;9.442;2023-04-01T04:04:34;7.60;99.90
19974;DHT22;10148;47.694;9.442;2023-04-01T04:06:59;7.60;99.90
19974;DHT22;10148;47.694;9.442;2023-04-01T04:09:25;7.60;99.90
19974;DHT22;10148;47.694;9.442;2023-04-01T04:11:50;7.60;99.90
19974;DHT22;10148;47.694;9.442;2023-04-01T04:14:16;7.60;99.90
19974;DHT22;10148;47.694;9.442;2023-04-01T04:16:42;7.70;99.90
19974;DHT22;10148;47.694;9.442;2023-04-01T04:19:07;7.70;99.90
19974;DHT22;10148;47.694;9.442;2023-04-01T04:21:33;7.70;99.90
19974;DHT22;10148;47.694;9.442;2023-04-01T04:24:00;7.70;99.90
19974;DHT22;10148;47.694;9.442;2023-04-01T04:26:26;7.70;99.90
19974;DHT22;10148;47.694;9.442;2023-04-01T04:28:53;7.80;99.90
19974;DHT22;10148;47.694;9.442;2023-04-01T04:31:20;7.80;99.90
19974;DHT22;10148;47.694;9.442;2023-04-01T04:33:46;7.80;99.90
19974;DHT22;10148;47.694;9.442;2023-04-01T04:36:13;7.70;99.90
19974;DHT22;10148;47.694;9.442;2023-04-01T04:38:39;7.80;99.90
19974;DHT22;10148;47.694;9.442;2023-04-01T04:41:09;7.80;99.90
19974;DHT22;10148;47.694;9.442;2023-04-01T04:43:35;7.80;99.90
19974;DHT22;10148;47.694;9.442;2023-04-01T04:46:05;7.70;99.90
19974;DHT22;10148;47.694;9.442;2023-04-01T04:48:30;7.70;99.90
19974;DHT22;10148;47.694;9.442;2023-04-01T04:50:56;7.80;99.90
19974;DHT22;10148;47.694;9.442;2023-04-01T04:53:21;7.80;99.90
19974;DHT22;10148;47.694;9.442;2023-04-01T04:55:48;7.80;99.90
